Airfield :
LOGIN :

Register | Disclaimer

   EN    FR    IT 

 










Legend :    VFR   Marginal VFR   IFR   Intensive IFR   Very Intensive IFR
Visi :
Ceiling :
>= 8 km
>= 3000ft
5 to 8 km
1000 to 3000 ft
1500m to 5 km
500 to 1000 ft
800 to 1500m
200 to 500 ft
< 800m
< 200 ft
Symbols :   Thunderstorms  Fog  Heavy snow  Heavy precipitations  Wind > 20 kt
SIGMETs :     Misc.  Thunderstorms  Icing  Turbulence  Mountain Waves  Volcanic Ashes






- Airport Elevation : 17 ft
- IATA code : GRQ


EHGG - Groningen Eelde

CURRENT METAR :
  • 281625Z AUTO 09008KT 060V120 3600 BR OVC004 05/04 Q1023 TEMPO OVC005

EXPIRED METARs :
  • 281555Z AUTO 10007KT 070V130 3600 BR OVC005 05/04 Q1023 NOSIG
  • 281525Z AUTO 09006KT 050V130 3500 BR OVC004 05/04 Q1023 NOSIG
  • 281455Z AUTO 09008KT 050V140 3000 BR OVC004 05/04 Q1023 NOSIG
  • 281425Z AUTO 08008KT 2700 BR OVC004 05/04 Q1023 NOSIG
  • 281355Z AUTO 11007KT 070V140 2800 BR OVC003 05/05 Q1022 NOSIG

TAF TAF EHGG
Valid from the 28 at 12:00 until the 29 at 18:00 UTC


281115Z 2812/2918 09008KT 2000 BR OVC004
BECMG 2812/2815 4000 BKN007
PROB40 2818/2904 6000 NSW BKN012
BECMG 2903/2906 SCT014
BECMG 2909/2912 CAVOK



MET'MAP, your aeronautical weather chart ! - Copyright ORBIFLY December 2007 - Disclaimer

ORBIFLY MET'MAP TEAM :

Programming & Development : Alexandra Zaïnal
Concept & original design : Baudouin d'Aumeries
Assistance for programming : Marc-Olivier Méhu
Technical & hardware support : Manuel Goepfert

Contact : metmap@orbifly.com




SOURCES & CREDITS :

   NOAA